sensor_id;sensor_type;location;lat;lon;timestamp;P1;durP1;ratioP1;P2;durP2;ratioP2
51778;SDS011;37843;53.266;6.746;2022-07-23T00:00:31;3.17;;;2.53;;
51778;SDS011;37843;53.266;6.746;2022-07-23T00:02:57;4.60;;;2.88;;
51778;SDS011;37843;53.266;6.746;2022-07-23T00:05:28;4.60;;;2.85;;
51778;SDS011;37843;53.266;6.746;2022-07-23T00:07:54;4.30;;;3.17;;
51778;SDS011;37843;53.266;6.746;2022-07-23T00:10:21;4.20;;;3.00;;
51778;SDS011;37843;53.266;6.746;2022-07-23T00:12:52;5.03;;;3.08;;
51778;SDS011;37843;53.266;6.746;2022-07-23T00:15:18;5.80;;;3.00;;
51778;SDS011;37843;53.266;6.746;2022-07-23T00:17:45;4.20;;;3.17;;
51778;SDS011;37843;53.266;6.746;2022-07-23T00:20:15;5.13;;;3.28;;
51778;SDS011;37843;53.266;6.746;2022-07-23T00:22:52;6.50;;;3.70;;
51778;SDS011;37843;53.266;6.746;2022-07-23T00:25:40;4.30;;;3.60;;
51778;SDS011;37843;53.266;6.746;2022-07-23T00:28:06;5.63;;;3.63;;
51778;SDS011;37843;53.266;6.746;2022-07-23T00:30:33;4.97;;;4.15;;
51778;SDS011;37843;53.266;6.746;2022-07-23T00:33:04;7.22;;;4.55;;
51778;SDS011;37843;53.266;6.746;2022-07-23T00:35:40;6.03;;;3.78;;
51778;SDS011;37843;53.266;6.746;2022-07-23T00:38:07;4.35;;;3.85;;
51778;SDS011;37843;53.266;6.746;2022-07-23T00:40:36;4.90;;;3.67;;
51778;SDS011;37843;53.266;6.746;2022-07-23T00:43:05;4.97;;;3.65;;
51778;SDS011;37843;53.266;6.746;2022-07-23T00:45:33;6.07;;;3.72;;
51778;SDS011;37843;53.266;6.746;2022-07-23T00:47:59;6.15;;;3.67;;
51778;SDS011;37843;53.266;6.746;2022-07-23T00:50:27;6.03;;;4.03;;
51778;SDS011;37843;53.266;6.746;2022-07-23T00:52:58;5.15;;;3.80;;
51778;SDS011;37843;53.266;6.746;2022-07-23T00:55:26;5.30;;;3.85;;
51778;SDS011;37843;53.266;6.746;2022-07-23T00:57:53;7.28;;;3.95;;
51778;SDS011;37843;53.266;6.746;2022-07-23T01:00:19;5.85;;;4.00;;
51778;SDS011;37843;53.266;6.746;2022-07-23T01:02:47;5.18;;;3.53;;
51778;SDS011;37843;53.266;6.746;2022-07-23T01:05:17;6.78;;;4.45;;
51778;SDS011;37843;53.266;6.746;2022-07-23T01:07:53;5.05;;;4.55;;
51778;SDS011;37843;53.266;6.746;2022-07-23T01:10:21;5.72;;;3.92;;
51778;SDS011;37843;53.266;6.746;2022-07-23T01:12:59;6.22;;;4.07;;
51778;SDS011;37843;53.266;6.746;2022-07-23T01:15:27;5.03;;;3.50;;
51778;SDS011;37843;53.266;6.746;2022-07-23T01:17:54;6.38;;;4.35;;
51778;SDS011;37843;53.266;6.746;2022-07-23T01:20:20;7.72;;;3.88;;
51778;SDS011;37843;53.266;6.746;2022-07-23T01:22:47;7.32;;;4.85;;
51778;SDS011;37843;53.266;6.746;2022-07-23T01:25:14;6.55;;;3.70;;
51778;SDS011;37843;53.266;6.746;2022-07-23T01:27:41;6.78;;;4.72;;
51778;SDS011;37843;53.266;6.746;2022-07-23T01:30:11;5.72;;;4.22;;
51778;SDS011;37843;53.266;6.746;2022-07-23T01:32:38;4.68;;;4.03;;
51778;SDS011;37843;53.266;6.746;2022-07-23T01:35:05;6.50;;;4.22;;
51778;SDS011;37843;53.266;6.746;2022-07-23T01:37:31;5.45;;;4.18;;
51778;SDS011;37843;53.266;6.746;2022-07-23T01:39:58;4.88;;;4.35;;
51778;SDS011;37843;53.266;6.746;2022-07-23T01:42:25;7.22;;;4.40;;
51778;SDS011;37843;53.266;6.746;2022-07-23T01:44:51;7.25;;;4.00;;
51778;SDS011;37843;53.266;6.746;2022-07-23T01:47:18;5.45;;;4.25;;
51778;SDS011;37843;53.266;6.746;2022-07-23T01:49:44;5.07;;;3.97;;
51778;SDS011;37843;53.266;6.746;2022-07-23T01:52:11;5.00;;;3.97;;
51778;SDS011;37843;53.266;6.746;2022-07-23T01:54:42;4.05;;;3.65;;
51778;SDS011;37843;53.266;6.746;2022-07-23T01:57:11;9.35;;;4.72;;
51778;SDS011;37843;53.266;6.746;2022-07-23T01:59:41;7.90;;;4.68;;
51778;SDS011;37843;53.266;6.746;2022-07-23T02:02:18;5.22;;;3.83;;
51778;SDS011;37843;53.266;6.746;2022-07-23T02:04:47;4.03;;;3.70;;
51778;SDS011;37843;53.266;6.746;2022-07-23T02:07:14;5.88;;;4.53;;
51778;SDS011;37843;53.266;6.746;2022-07-23T02:09:40;11.85;;;4.20;;
51778;SDS011;37843;53.266;6.746;2022-07-23T02:12:07;4.53;;;3.60;;
51778;SDS011;37843;53.266;6.746;2022-07-23T02:14:34;5.57;;;4.25;;
51778;SDS011;37843;53.266;6.746;2022-07-23T02:17:00;6.75;;;4.03;;
51778;SDS011;37843;53.266;6.746;2022-07-23T02:19:27;6.28;;;4.00;;
51778;SDS011;37843;53.266;6.746;2022-07-23T02:21:55;7.70;;;3.78;;
51778;SDS011;37843;53.266;6.746;2022-07-23T02:24:22;8.13;;;3.60;;
51778;SDS011;37843;53.266;6.746;2022-07-23T02:26:49;5.75;;;4.25;;
51778;SDS011;37843;53.266;6.746;2022-07-23T02:29:16;5.45;;;4.15;;
51778;SDS011;37843;53.266;6.746;2022-07-23T02:31:44;7.20;;;3.50;;
51778;SDS011;37843;53.266;6.746;2022-07-23T02:34:11;5.50;;;3.38;;
51778;SDS011;37843;53.266;6.746;2022-07-23T02:36:41;4.50;;;3.67;;
51778;SDS011;37843;53.266;6.746;2022-07-23T02:39:08;7.07;;;3.80;;
51778;SDS011;37843;53.266;6.746;2022-07-23T02:41:35;6.75;;;3.97;;
51778;SDS011;37843;53.266;6.746;2022-07-23T02:44:04;4.25;;;3.80;;
51778;SDS011;37843;53.266;6.746;2022-07-23T02:46:34;7.20;;;3.83;;
51778;SDS011;37843;53.266;6.746;2022-07-23T02:49:01;4.82;;;3.80;;
51778;SDS011;37843;53.266;6.746;2022-07-23T02:51:30;7.55;;;3.88;;
51778;SDS011;37843;53.266;6.746;2022-07-23T02:53:56;4.38;;;3.67;;
51778;SDS011;37843;53.266;6.746;2022-07-23T02:56:26;7.88;;;3.95;;
51778;SDS011;37843;53.266;6.746;2022-07-23T02:58:53;5.90;;;3.20;;
51778;SDS011;37843;53.266;6.746;2022-07-23T03:01:22;6.70;;;3.45;;
51778;SDS011;37843;53.266;6.746;2022-07-23T03:03:53;4.63;;;3.20;;
51778;SDS011;37843;53.266;6.746;2022-07-23T03:06:29;4.93;;;3.78;;
51778;SDS011;37843;53.266;6.746;2022-07-23T03:08:58;7.10;;;4.10;;
51778;SDS011;37843;53.266;6.746;2022-07-23T03:11:25;5.30;;;3.58;;
51778;SDS011;37843;53.266;6.746;2022-07-23T03:14:00;5.70;;;3.80;;
51778;SDS011;37843;53.266;6.746;2022-07-23T03:16:27;4.32;;;3.55;;
51778;SDS011;37843;53.266;6.746;2022-07-23T03:18:54;4.55;;;3.30;;
51778;SDS011;37843;53.266;6.746;2022-07-23T03:21:20;4.03;;;3.42;;
51778;SDS011;37843;53.266;6.746;2022-07-23T03:23:49;7.78;;;4.20;;
51778;SDS011;37843;53.266;6.746;2022-07-23T03:26:16;7.57;;;3.35;;
51778;SDS011;37843;53.266;6.746;2022-07-23T03:28:44;5.13;;;3.60;;
51778;SDS011;37843;53.266;6.746;2022-07-23T03:31:14;13.68;;;3.72;;
51778;SDS011;37843;53.266;6.746;2022-07-23T03:33:43;4.70;;;3.08;;
51778;SDS011;37843;53.266;6.746;2022-07-23T03:36:14;5.20;;;3.38;;
51778;SDS011;37843;53.266;6.746;2022-07-23T03:38:49;7.18;;;3.63;;
51778;SDS011;37843;53.266;6.746;2022-07-23T03:41:16;6.50;;;3.60;;
51778;SDS011;37843;53.266;6.746;2022-07-23T03:43:43;6.97;;;2.92;;
51778;SDS011;37843;53.266;6.746;2022-07-23T03:46:09;5.57;;;3.25;;
51778;SDS011;37843;53.266;6.746;2022-07-23T03:48:36;5.15;;;3.67;;
51778;SDS011;37843;53.266;6.746;2022-07-23T03:51:03;5.15;;;3.28;;
51778;SDS011;37843;53.266;6.746;2022-07-23T03:53:30;4.20;;;3.42;;
51778;SDS011;37843;53.266;6.746;2022-07-23T03:55:56;4.82;;;3.05;;
51778;SDS011;37843;53.266;6.746;2022-07-23T03:58:23;3.13;;;2.67;;
51778;SDS011;37843;53.266;6.746;2022-07-23T04:00:49;3.80;;;2.85;;
51778;SDS011;37843;53.266;6.746;2022-07-23T04:03:17;6.45;;;3.10;;
51778;SDS011;37843;53.266;6.746;2022-07-23T04:05:45;5.45;;;2.90;;
51778;SDS011;37843;53.266;6.746;2022-07-23T04:08:12;5.63;;;2.72;;
51778;SDS011;37843;53.266;6.746;2022-07-23T04:10:42;2.72;;;2.28;;
51778;SDS011;37843;53.266;6.746;2022-07-23T04:13:08;5.22;;;3.03;;
51778;SDS011;37843;53.266;6.746;2022-07-23T04:15:35;3.78;;;2.63;;
51778;SDS011;37843;53.266;6.746;2022-07-23T04:18:03;4.90;;;2.97;;
51778;SDS011;37843;53.266;6.746;2022-07-23T04:20:34;6.13;;;3.15;;
51778;SDS011;37843;53.266;6.746;2022-07-23T04:23:00;4.82;;;3.00;;
51778;SDS011;37843;53.266;6.746;2022-07-23T04:25:31;3.60;;;3.15;;
51778;SDS011;37843;53.266;6.746;2022-07-23T04:27:57;5.45;;;2.72;;
51778;SDS011;37843;53.266;6.746;2022-07-23T04:30:23;7.25;;;3.63;;
51778;SDS011;37843;53.266;6.746;2022-07-23T04:32:49;3.40;;;2.90;;
51778;SDS011;37843;53.266;6.746;2022-07-23T04:35:16;4.28;;;3.58;;
51778;SDS011;37843;53.266;6.746;2022-07-23T04:37:42;5.28;;;3.30;;
51778;SDS011;37843;53.266;6.746;2022-07-23T04:40:08;6.65;;;3.75;;
51778;SDS011;37843;53.266;6.746;2022-07-23T04:42:34;4.75;;;3.63;;
51778;SDS011;37843;53.266;6.746;2022-07-23T04:45:00;7.20;;;3.78;;
51778;SDS011;37843;53.266;6.746;2022-07-23T04:47:26;5.28;;;3.60;;
51778;SDS011;37843;53.266;6.746;2022-07-23T04:49:52;4.32;;;3.38;;
51778;SDS011;37843;53.266;6.746;2022-07-23T04:52:19;5.53;;;3.78;;
51778;SDS011;37843;53.266;6.746;2022-07-23T04:54:45;4.00;;;3.35;;
51778;SDS011;37843;53.266;6.746;2022-07-23T04:57:11;6.90;;;3.58;;
51778;SDS011;37843;53.266;6.746;2022-07-23T04:59:38;6.00;;;3.70;;
51778;SDS011;37843;53.266;6.746;2022-07-23T05:02:04;6.53;;;3.50;;
51778;SDS011;37843;53.266;6.746;2022-07-23T05:04:30;6.68;;;3.70;;
51778;SDS011;37843;53.266;6.746;2022-07-23T05:06:57;6.82;;;3.95;;
51778;SDS011;37843;53.266;6.746;2022-07-23T05:09:23;6.05;;;4.03;;
51778;SDS011;37843;53.266;6.746;2022-07-23T05:11:49;4.70;;;3.53;;
51778;SDS011;37843;53.266;6.746;2022-07-23T05:14:15;5.22;;;3.85;;
51778;SDS011;37843;53.266;6.746;2022-07-23T05:16:42;6.82;;;3.70;;
51778;SDS011;37843;53.266;6.746;2022-07-23T05:19:08;3.92;;;3.53;;
51778;SDS011;37843;53.266;6.746;2022-07-23T05:21:34;3.88;;;3.35;;
51778;SDS011;37843;53.266;6.746;2022-07-23T05:24:00;5.43;;;3.72;;
51778;SDS011;37843;53.266;6.746;2022-07-23T05:26:26;5.07;;;3.22;;
51778;SDS011;37843;53.266;6.746;2022-07-23T05:28:52;3.85;;;3.42;;
51778;SDS011;37843;53.266;6.746;2022-07-23T05:31:19;6.22;;;3.22;;
51778;SDS011;37843;53.266;6.746;2022-07-23T05:33:45;4.85;;;3.33;;
51778;SDS011;37843;53.266;6.746;2022-07-23T05:36:11;4.13;;;3.20;;
51778;SDS011;37843;53.266;6.746;2022-07-23T05:38:37;5.88;;;3.53;;
51778;SDS011;37843;53.266;6.746;2022-07-23T05:41:03;5.20;;;3.20;;
51778;SDS011;37843;53.266;6.746;2022-07-23T05:43:31;4.53;;;3.05;;
51778;SDS011;37843;53.266;6.746;2022-07-23T05:45:58;6.38;;;3.15;;
51778;SDS011;37843;53.266;6.746;2022-07-23T05:48:24;4.50;;;3.25;;
51778;SDS011;37843;53.266;6.746;2022-07-23T05:50:50;4.25;;;2.60;;
51778;SDS011;37843;53.266;6.746;2022-07-23T05:53:16;4.30;;;3.70;;
51778;SDS011;37843;53.266;6.746;2022-07-23T05:55:42;5.75;;;3.30;;
51778;SDS011;37843;53.266;6.746;2022-07-23T05:58:09;5.43;;;3.22;;
51778;SDS011;37843;53.266;6.746;2022-07-23T06:00:35;7.38;;;3.95;;
51778;SDS011;37843;53.266;6.746;2022-07-23T06:03:01;8.10;;;3.58;;
51778;SDS011;37843;53.266;6.746;2022-07-23T06:05:27;4.53;;;3.05;;
51778;SDS011;37843;53.266;6.746;2022-07-23T06:07:53;4.68;;;3.03;;
51778;SDS011;37843;53.266;6.746;2022-07-23T06:10:19;6.97;;;3.90;;
51778;SDS011;37843;53.266;6.746;2022-07-23T06:12:46;3.80;;;3.40;;
51778;SDS011;37843;53.266;6.746;2022-07-23T06:15:12;5.63;;;3.55;;
51778;SDS011;37843;53.266;6.746;2022-07-23T06:17:39;5.63;;;3.60;;
51778;SDS011;37843;53.266;6.746;2022-07-23T06:20:06;4.07;;;3.22;;
51778;SDS011;37843;53.266;6.746;2022-07-23T06:22:32;5.68;;;3.15;;
51778;SDS011;37843;53.266;6.746;2022-07-23T06:24:58;4.82;;;3.10;;
51778;SDS011;37843;53.266;6.746;2022-07-23T06:27:24;4.03;;;3.10;;
51778;SDS011;37843;53.266;6.746;2022-07-23T06:29:51;3.08;;;2.70;;
51778;SDS011;37843;53.266;6.746;2022-07-23T06:32:17;3.55;;;3.05;;
51778;SDS011;37843;53.266;6.746;2022-07-23T06:34:43;6.43;;;3.00;;
51778;SDS011;37843;53.266;6.746;2022-07-23T06:37:09;3.58;;;2.72;;
51778;SDS011;37843;53.266;6.746;2022-07-23T06:39:35;4.55;;;2.83;;
51778;SDS011;37843;53.266;6.746;2022-07-23T06:42:01;6.28;;;3.10;;
51778;SDS011;37843;53.266;6.746;2022-07-23T06:44:27;4.88;;;2.90;;
51778;SDS011;37843;53.266;6.746;2022-07-23T06:46:57;4.78;;;2.55;;
51778;SDS011;37843;53.266;6.746;2022-07-23T06:49:23;4.70;;;2.40;;
51778;SDS011;37843;53.266;6.746;2022-07-23T06:51:49;2.10;;;1.83;;
51778;SDS011;37843;53.266;6.746;2022-07-23T06:54:15;2.65;;;1.90;;
51778;SDS011;37843;53.266;6.746;2022-07-23T06:56:41;2.67;;;1.83;;
51778;SDS011;37843;53.266;6.746;2022-07-23T06:59:08;1.63;;;1.52;;
51778;SDS011;37843;53.266;6.746;2022-07-23T07:01:34;3.03;;;1.63;;
51778;SDS011;37843;53.266;6.746;2022-07-23T07:04:00;2.90;;;1.85;;
51778;SDS011;37843;53.266;6.746;2022-07-23T07:06:26;1.42;;;1.30;;
51778;SDS011;37843;53.266;6.746;2022-07-23T07:08:52;1.20;;;1.10;;
51778;SDS011;37843;53.266;6.746;2022-07-23T07:11:18;2.17;;;1.45;;
51778;SDS011;37843;53.266;6.746;2022-07-23T07:13:45;1.75;;;1.35;;
51778;SDS011;37843;53.266;6.746;2022-07-23T07:16:11;4.68;;;1.33;;
51778;SDS011;37843;53.266;6.746;2022-07-23T07:18:37;1.40;;;1.30;;
51778;SDS011;37843;53.266;6.746;2022-07-23T07:21:03;1.95;;;1.30;;
51778;SDS011;37843;53.266;6.746;2022-07-23T07:23:29;2.15;;;1.08;;
51778;SDS011;37843;53.266;6.746;2022-07-23T07:25:55;1.98;;;0.90;;
51778;SDS011;37843;53.266;6.746;2022-07-23T07:28:21;2.05;;;1.00;;
51778;SDS011;37843;53.266;6.746;2022-07-23T07:30:48;0.68;;;0.68;;
51778;SDS011;37843;53.266;6.746;2022-07-23T07:33:14;2.75;;;0.93;;
51778;SDS011;37843;53.266;6.746;2022-07-23T07:35:40;2.30;;;0.90;;
51778;SDS011;37843;53.266;6.746;2022-07-23T07:38:06;1.77;;;0.90;;
51778;SDS011;37843;53.266;6.746;2022-07-23T07:40:32;1.75;;;0.88;;
51778;SDS011;37843;53.266;6.746;2022-07-23T07:42:58;2.08;;;1.05;;
51778;SDS011;37843;53.266;6.746;2022-07-23T07:45:25;2.92;;;1.00;;
51778;SDS011;37843;53.266;6.746;2022-07-23T07:47:51;1.08;;;0.98;;
51778;SDS011;37843;53.266;6.746;2022-07-23T07:50:18;1.35;;;1.00;;
51778;SDS011;37843;53.266;6.746;2022-07-23T07:52:45;2.08;;;0.90;;
51778;SDS011;37843;53.266;6.746;2022-07-23T07:55:11;3.75;;;0.90;;
51778;SDS011;37843;53.266;6.746;2022-07-23T07:57:38;2.95;;;0.80;;
51778;SDS011;37843;53.266;6.746;2022-07-23T08:00:04;2.60;;;1.08;;
51778;SDS011;37843;53.266;6.746;2022-07-23T08:05:07;0.80;;;0.77;;
51778;SDS011;37843;53.266;6.746;2022-07-23T08:07:33;1.10;;;0.88;;
51778;SDS011;37843;53.266;6.746;2022-07-23T08:09:59;2.67;;;0.60;;
51778;SDS011;37843;53.266;6.746;2022-07-23T08:12:25;2.10;;;0.98;;
51778;SDS011;37843;53.266;6.746;2022-07-23T08:14:52;1.13;;;1.02;;
51778;SDS011;37843;53.266;6.746;2022-07-23T08:17:19;1.92;;;0.85;;
51778;SDS011;37843;53.266;6.746;2022-07-23T08:19:45;1.25;;;0.80;;
51778;SDS011;37843;53.266;6.746;2022-07-23T08:22:13;1.23;;;1.00;;
51778;SDS011;37843;53.266;6.746;2022-07-23T08:24:39;1.60;;;0.73;;
51778;SDS011;37843;53.266;6.746;2022-07-23T08:27:05;1.45;;;0.88;;
51778;SDS011;37843;53.266;6.746;2022-07-23T08:29:31;1.23;;;1.00;;
51778;SDS011;37843;53.266;6.746;2022-07-23T08:32:01;2.05;;;0.90;;
51778;SDS011;37843;53.266;6.746;2022-07-23T08:34:27;2.08;;;0.90;;
51778;SDS011;37843;53.266;6.746;2022-07-23T08:36:53;2.60;;;1.05;;
51778;SDS011;37843;53.266;6.746;2022-07-23T08:39:19;2.92;;;1.05;;
51778;SDS011;37843;53.266;6.746;2022-07-23T08:41:45;1.08;;;0.80;;
51778;SDS011;37843;53.266;6.746;2022-07-23T08:44:13;2.78;;;0.85;;
51778;SDS011;37843;53.266;6.746;2022-07-23T08:46:41;1.08;;;0.82;;
51778;SDS011;37843;53.266;6.746;2022-07-23T08:49:08;1.42;;;0.90;;
51778;SDS011;37843;53.266;6.746;2022-07-23T08:51:34;2.50;;;0.90;;
51778;SDS011;37843;53.266;6.746;2022-07-23T08:54:00;1.80;;;0.90;;
51778;SDS011;37843;53.266;6.746;2022-07-23T08:56:26;1.00;;;0.68;;
51778;SDS011;37843;53.266;6.746;2022-07-23T08:58:53;3.03;;;1.30;;
51778;SDS011;37843;53.266;6.746;2022-07-23T09:01:19;2.10;;;1.10;;
51778;SDS011;37843;53.266;6.746;2022-07-23T09:03:46;1.30;;;0.70;;
51778;SDS011;37843;53.266;6.746;2022-07-23T09:06:12;1.58;;;0.80;;
51778;SDS011;37843;53.266;6.746;2022-07-23T09:08:38;1.10;;;0.77;;
51778;SDS011;37843;53.266;6.746;2022-07-23T09:11:06;1.83;;;0.82;;
51778;SDS011;37843;53.266;6.746;2022-07-23T09:18:44;1.00;;;0.70;;
51778;SDS011;37843;53.266;6.746;2022-07-23T09:21:11;0.80;;;0.80;;
51778;SDS011;37843;53.266;6.746;2022-07-23T09:23:45;1.10;;;0.70;;
51778;SDS011;37843;53.266;6.746;2022-07-23T09:31:19;1.38;;;0.80;;
51778;SDS011;37843;53.266;6.746;2022-07-23T09:33:46;1.40;;;0.88;;
51778;SDS011;37843;53.266;6.746;2022-07-23T09:36:13;2.40;;;0.90;;
51778;SDS011;37843;53.266;6.746;2022-07-23T09:38:49;2.17;;;1.10;;
51778;SDS011;37843;53.266;6.746;2022-07-23T09:41:16;1.38;;;1.25;;
51778;SDS011;37843;53.266;6.746;2022-07-23T09:43:42;1.65;;;1.08;;
51778;SDS011;37843;53.266;6.746;2022-07-23T09:48:45;2.65;;;1.33;;
51778;SDS011;37843;53.266;6.746;2022-07-23T09:51:11;0.95;;;0.90;;
51778;SDS011;37843;53.266;6.746;2022-07-23T09:53:40;2.47;;;1.08;;
51778;SDS011;37843;53.266;6.746;2022-07-23T09:56:07;1.52;;;0.90;;
51778;SDS011;37843;53.266;6.746;2022-07-23T09:58:33;1.58;;;0.98;;
51778;SDS011;37843;53.266;6.746;2022-07-23T10:01:08;2.50;;;1.17;;
51778;SDS011;37843;53.266;6.746;2022-07-23T10:03:34;1.02;;;0.80;;
51778;SDS011;37843;53.266;6.746;2022-07-23T10:06:01;1.40;;;0.90;;
51778;SDS011;37843;53.266;6.746;2022-07-23T10:08:27;3.60;;;0.90;;
51778;SDS011;37843;53.266;6.746;2022-07-23T10:10:54;0.85;;;0.75;;
51778;SDS011;37843;53.266;6.746;2022-07-23T10:13:24;2.13;;;1.13;;
51778;SDS011;37843;53.266;6.746;2022-07-23T10:16:08;2.70;;;0.80;;
51778;SDS011;37843;53.266;6.746;2022-07-23T10:18:35;1.80;;;0.80;;
51778;SDS011;37843;53.266;6.746;2022-07-23T10:21:02;1.27;;;0.80;;
51778;SDS011;37843;53.266;6.746;2022-07-23T10:23:33;2.35;;;0.98;;
51778;SDS011;37843;53.266;6.746;2022-07-23T10:28:40;1.25;;;0.65;;
51778;SDS011;37843;53.266;6.746;2022-07-23T10:39:13;3.05;;;0.88;;
51778;SDS011;37843;53.266;6.746;2022-07-23T10:41:41;1.10;;;0.90;;
51778;SDS011;37843;53.266;6.746;2022-07-23T10:46:34;2.05;;;0.93;;
51778;SDS011;37843;53.266;6.746;2022-07-23T10:54:36;0.90;;;0.90;;
51778;SDS011;37843;53.266;6.746;2022-07-23T10:57:05;4.03;;;0.98;;
51778;SDS011;37843;53.266;6.746;2022-07-23T10:59:58;0.98;;;0.93;;
51778;SDS011;37843;53.266;6.746;2022-07-23T11:02:23;2.03;;;1.05;;
51778;SDS011;37843;53.266;6.746;2022-07-23T11:04:51;2.08;;;1.00;;
51778;SDS011;37843;53.266;6.746;2022-07-23T11:07:18;1.08;;;1.00;;
51778;SDS011;37843;53.266;6.746;2022-07-23T11:09:45;2.72;;;0.98;;
51778;SDS011;37843;53.266;6.746;2022-07-23T11:17:25;2.17;;;1.33;;
51778;SDS011;37843;53.266;6.746;2022-07-23T11:25:10;1.85;;;1.17;;
51778;SDS011;37843;53.266;6.746;2022-07-23T11:27:40;2.33;;;1.50;;
51778;SDS011;37843;53.266;6.746;2022-07-23T11:30:07;1.42;;;1.27;;
51778;SDS011;37843;53.266;6.746;2022-07-23T11:32:34;2.25;;;1.20;;
51778;SDS011;37843;53.266;6.746;2022-07-23T11:35:03;1.50;;;1.40;;
51778;SDS011;37843;53.266;6.746;2022-07-23T11:40:03;3.05;;;1.17;;
51778;SDS011;37843;53.266;6.746;2022-07-23T11:42:30;4.88;;;1.75;;
51778;SDS011;37843;53.266;6.746;2022-07-23T11:44:56;3.58;;;1.45;;
51778;SDS011;37843;53.266;6.746;2022-07-23T11:47:23;1.90;;;1.50;;
51778;SDS011;37843;53.266;6.746;2022-07-23T11:49:57;3.60;;;1.63;;
51778;SDS011;37843;53.266;6.746;2022-07-23T11:52:23;1.50;;;1.40;;
51778;SDS011;37843;53.266;6.746;2022-07-23T11:55:00;2.63;;;1.48;;
51778;SDS011;37843;53.266;6.746;2022-07-23T11:57:30;2.30;;;1.35;;
51778;SDS011;37843;53.266;6.746;2022-07-23T11:59:58;1.73;;;1.40;;
51778;SDS011;37843;53.266;6.746;2022-07-23T12:02:26;3.20;;;1.50;;
51778;SDS011;37843;53.266;6.746;2022-07-23T12:04:52;4.88;;;2.03;;
51778;SDS011;37843;53.266;6.746;2022-07-23T12:07:52;2.88;;;1.42;;
51778;SDS011;37843;53.266;6.746;2022-07-23T12:10:16;1.77;;;1.47;;
51778;SDS011;37843;53.266;6.746;2022-07-23T12:12:51;1.90;;;1.50;;
51778;SDS011;37843;53.266;6.746;2022-07-23T12:15:19;4.03;;;1.40;;
51778;SDS011;37843;53.266;6.746;2022-07-23T12:17:48;3.38;;;1.30;;
51778;SDS011;37843;53.266;6.746;2022-07-23T12:20:16;4.70;;;1.40;;
51778;SDS011;37843;53.266;6.746;2022-07-23T12:22:44;1.80;;;1.50;;
51778;SDS011;37843;53.266;6.746;2022-07-23T12:25:11;1.50;;;1.20;;
51778;SDS011;37843;53.266;6.746;2022-07-23T12:27:38;1.65;;;1.45;;
51778;SDS011;37843;53.266;6.746;2022-07-23T12:32:50;3.25;;;1.75;;
51778;SDS011;37843;53.266;6.746;2022-07-23T12:35:17;1.75;;;1.40;;
51778;SDS011;37843;53.266;6.746;2022-07-23T12:37:44;2.42;;;1.40;;
51778;SDS011;37843;53.266;6.746;2022-07-23T12:42:46;2.70;;;1.42;;
51778;SDS011;37843;53.266;6.746;2022-07-23T12:45:13;4.90;;;1.50;;
51778;SDS011;37843;53.266;6.746;2022-07-23T12:55:49;2.28;;;1.27;;
51778;SDS011;37843;53.266;6.746;2022-07-23T12:58:16;2.13;;;1.25;;
51778;SDS011;37843;53.266;6.746;2022-07-23T13:00:53;2.20;;;1.60;;
51778;SDS011;37843;53.266;6.746;2022-07-23T13:03:20;5.28;;;1.42;;
51778;SDS011;37843;53.266;6.746;2022-07-23T13:05:46;2.45;;;1.67;;
51778;SDS011;37843;53.266;6.746;2022-07-23T13:08:12;2.92;;;1.42;;
51778;SDS011;37843;53.266;6.746;2022-07-23T13:10:38;2.53;;;1.25;;
51778;SDS011;37843;53.266;6.746;2022-07-23T13:13:08;1.50;;;1.00;;
51778;SDS011;37843;53.266;6.746;2022-07-23T13:15:35;1.83;;;1.30;;
51778;SDS011;37843;53.266;6.746;2022-07-23T13:18:01;4.78;;;2.13;;
51778;SDS011;37843;53.266;6.746;2022-07-23T13:20:27;1.75;;;1.30;;
51778;SDS011;37843;53.266;6.746;2022-07-23T13:22:53;2.15;;;1.40;;
51778;SDS011;37843;53.266;6.746;2022-07-23T13:25:19;2.90;;;1.33;;
51778;SDS011;37843;53.266;6.746;2022-07-23T13:27:45;3.78;;;1.30;;
51778;SDS011;37843;53.266;6.746;2022-07-23T13:30:12;2.85;;;1.20;;
51778;SDS011;37843;53.266;6.746;2022-07-23T13:32:38;2.85;;;1.35;;
51778;SDS011;37843;53.266;6.746;2022-07-23T13:35:04;3.08;;;1.38;;
51778;SDS011;37843;53.266;6.746;2022-07-23T13:37:30;3.05;;;1.73;;
51778;SDS011;37843;53.266;6.746;2022-07-23T13:39:56;1.17;;;1.08;;
51778;SDS011;37843;53.266;6.746;2022-07-23T13:42:22;2.05;;;1.20;;
51778;SDS011;37843;53.266;6.746;2022-07-23T13:44:48;1.05;;;0.95;;
51778;SDS011;37843;53.266;6.746;2022-07-23T13:47:14;2.75;;;1.45;;
51778;SDS011;37843;53.266;6.746;2022-07-23T13:49:41;2.67;;;1.40;;
51778;SDS011;37843;53.266;6.746;2022-07-23T13:52:11;2.03;;;1.40;;
51778;SDS011;37843;53.266;6.746;2022-07-23T13:54:37;3.72;;;1.75;;
51778;SDS011;37843;53.266;6.746;2022-07-23T13:57:03;2.17;;;1.35;;
51778;SDS011;37843;53.266;6.746;2022-07-23T13:59:29;2.03;;;1.67;;
51778;SDS011;37843;53.266;6.746;2022-07-23T14:01:55;2.92;;;1.60;;
51778;SDS011;37843;53.266;6.746;2022-07-23T14:04:22;2.28;;;1.58;;
51778;SDS011;37843;53.266;6.746;2022-07-23T14:06:48;2.40;;;1.50;;
51778;SDS011;37843;53.266;6.746;2022-07-23T14:09:14;1.77;;;1.50;;
51778;SDS011;37843;53.266;6.746;2022-07-23T14:11:40;3.63;;;2.20;;
51778;SDS011;37843;53.266;6.746;2022-07-23T14:14:06;2.13;;;1.42;;
51778;SDS011;37843;53.266;6.746;2022-07-23T14:16:32;1.40;;;1.30;;
51778;SDS011;37843;53.266;6.746;2022-07-23T14:18:58;3.30;;;1.80;;
51778;SDS011;37843;53.266;6.746;2022-07-23T14:21:24;3.63;;;1.70;;
51778;SDS011;37843;53.266;6.746;2022-07-23T14:24:00;3.30;;;1.48;;
51778;SDS011;37843;53.266;6.746;2022-07-23T14:26:28;2.33;;;1.30;;
51778;SDS011;37843;53.266;6.746;2022-07-23T14:28:54;1.58;;;1.30;;
51778;SDS011;37843;53.266;6.746;2022-07-23T14:31:21;2.00;;;1.17;;
51778;SDS011;37843;53.266;6.746;2022-07-23T14:33:47;1.75;;;1.40;;
51778;SDS011;37843;53.266;6.746;2022-07-23T14:36:14;2.15;;;1.10;;
51778;SDS011;37843;53.266;6.746;2022-07-23T14:38:40;1.77;;;1.40;;
51778;SDS011;37843;53.266;6.746;2022-07-23T14:41:06;1.73;;;1.40;;
51778;SDS011;37843;53.266;6.746;2022-07-23T14:43:33;3.13;;;1.40;;
51778;SDS011;37843;53.266;6.746;2022-07-23T14:45:59;1.70;;;1.33;;
51778;SDS011;37843;53.266;6.746;2022-07-23T14:48:25;3.17;;;1.50;;
51778;SDS011;37843;53.266;6.746;2022-07-23T14:50:52;2.50;;;1.50;;
51778;SDS011;37843;53.266;6.746;2022-07-23T14:53:18;1.65;;;0.90;;
51778;SDS011;37843;53.266;6.746;2022-07-23T14:55:44;2.30;;;1.60;;
51778;SDS011;37843;53.266;6.746;2022-07-23T14:58:10;2.70;;;1.60;;
51778;SDS011;37843;53.266;6.746;2022-07-23T15:00:36;2.65;;;1.30;;
51778;SDS011;37843;53.266;6.746;2022-07-23T15:03:03;1.35;;;1.25;;
51778;SDS011;37843;53.266;6.746;2022-07-23T15:05:29;2.10;;;1.23;;
51778;SDS011;37843;53.266;6.746;2022-07-23T15:07:55;1.40;;;1.30;;
51778;SDS011;37843;53.266;6.746;2022-07-23T15:10:21;1.55;;;1.08;;
51778;SDS011;37843;53.266;6.746;2022-07-23T15:12:48;1.33;;;1.10;;
51778;SDS011;37843;53.266;6.746;2022-07-23T15:15:14;1.30;;;1.17;;
51778;SDS011;37843;53.266;6.746;2022-07-23T15:17:40;2.55;;;1.33;;
51778;SDS011;37843;53.266;6.746;2022-07-23T15:20:06;1.30;;;1.08;;
51778;SDS011;37843;53.266;6.746;2022-07-23T15:22:32;2.15;;;1.50;;
51778;SDS011;37843;53.266;6.746;2022-07-23T15:24:59;1.42;;;1.10;;
51778;SDS011;37843;53.266;6.746;2022-07-23T15:27:25;2.92;;;1.00;;
51778;SDS011;37843;53.266;6.746;2022-07-23T15:29:51;1.40;;;1.10;;
51778;SDS011;37843;53.266;6.746;2022-07-23T15:32:17;1.60;;;0.85;;
51778;SDS011;37843;53.266;6.746;2022-07-23T15:34:43;2.67;;;1.58;;
51778;SDS011;37843;53.266;6.746;2022-07-23T15:37:09;3.17;;;1.60;;
51778;SDS011;37843;53.266;6.746;2022-07-23T15:39:36;1.27;;;0.95;;
51778;SDS011;37843;53.266;6.746;2022-07-23T15:42:02;1.98;;;1.23;;
51778;SDS011;37843;53.266;6.746;2022-07-23T15:44:28;5.32;;;1.23;;
51778;SDS011;37843;53.266;6.746;2022-07-23T15:46:56;3.90;;;1.25;;
51778;SDS011;37843;53.266;6.746;2022-07-23T15:49:22;4.28;;;1.20;;